createdAt,value
2019-02-27T06:17:17.486Z,0.50
2019-02-27T07:01:48.116Z,1.10
2019-02-27T07:11:34.177Z,1.40
2019-02-27T07:18:03.474Z,1.60
2019-02-27T07:20:39.807Z,1.70
2019-02-27T07:23:23.683Z,1.90
2019-02-27T07:29:49.553Z,2.10
2019-02-27T07:35:37.083Z,2.40
2019-02-27T20:00:47.535Z,8.30
2019-02-27T20:03:13.284Z,8.30
2019-02-27T20:05:37.164Z,8.20
2019-02-27T20:07:54.596Z,8.30
2019-02-27T20:28:31.839Z,8.60
2019-02-27T20:31:17.997Z,8.80
2019-02-27T20:37:30.943Z,9.00
2019-02-27T20:40:08.145Z,9.00
2019-02-27T20:42:33.758Z,9.00
2019-02-27T20:44:55.963Z,9.10
2019-02-27T20:47:12.058Z,9.20
2019-02-27T20:55:16.658Z,9.60
2019-02-27T20:57:47.770Z,9.60
2019-02-27T21:00:25.843Z,9.60
2019-02-27T21:03:15.418Z,9.60
2019-02-27T21:08:56.766Z,9.50
2019-02-27T21:11:49.791Z,9.40
2019-02-27T21:14:08.516Z,9.50
2019-02-27T21:16:36.820Z,9.50
2019-02-27T21:19:13.795Z,9.50
2019-02-27T21:24:12.508Z,9.40
2019-02-27T21:26:27.995Z,9.40
2019-02-27T21:28:57.859Z,9.40
2019-02-27T21:31:31.750Z,9.30
2019-02-27T21:33:42.345Z,9.30
2019-02-27T21:35:45.135Z,9.30
2019-02-27T21:37:55.994Z,9.30
2019-02-27T21:40:05.614Z,9.30
2019-02-27T21:42:23.693Z,9.30
2019-02-27T21:44:46.771Z,9.30
2019-02-27T21:46:58.887Z,9.30
2019-02-27T21:49:32.099Z,9.30
2019-02-27T21:51:48.828Z,9.30
2019-02-27T21:54:07.548Z,9.40
2019-02-27T21:56:27.413Z,9.30
2019-02-27T21:58:55.021Z,9.40
2019-02-27T22:01:14.717Z,9.30
2019-02-27T22:03:38.388Z,9.40
2019-02-27T22:53:20.957Z,9.10
2019-02-27T22:56:08.558Z,9.10
2019-02-27T22:58:51.654Z,9.00
2019-02-27T23:01:35.425Z,8.90
2019-02-27T23:04:32.806Z,8.80
2019-02-27T23:07:26.082Z,8.80
2019-02-27T23:21:20.415Z,8.60
2019-02-27T23:51:30.876Z,8.30
2019-02-27T23:54:12.795Z,8.20
2019-02-27T23:56:33.621Z,8.10
2019-02-27T23:58:55.525Z,8.00
